CheckWX is a tool to help pilots better visualize weather data.  It is not intended as a substitute for an official pre-flight weather briefing.

06:08:36 UTC

ENHE METAR
Heidrun Airport
Norway
Current

19 mins ago

ENHE 230550Z 22031KT CAVOK 10/05 Q1016 W///S4
Observed
Apr-23 @ 05:50 UTC
Wind
  • 220° at 31 KTS
Visibility
10,000+ meters
Flight Rules
VFR
Cloud Levels
  • Clear skies
Temperature
10°C / 50°F
Dewpoint
C / 41°F
Humidity
71%
Altimeter
30" Hg
Pressure
1015.92 hPa
Previous

49 mins ago

ENHE 230520Z 22032KT CAVOK 10/05 Q1016 W///S4
Observed
Apr-23 @ 05:20 UTC
Wind
  • 220° at 32 KTS
Visibility
10,000+ meters
Flight Rules
VFR
Cloud Levels
  • Clear skies
Temperature
10°C / 50°F
Dewpoint
C / 41°F
Humidity
71%
Altimeter
30" Hg
Pressure
1015.92 hPa
Previous

1 hour ago

ENHE 230450Z 23035KT CAVOK 09/05 Q1015 W///S4
Observed
Apr-23 @ 04:50 UTC
Wind
  • 230° at 35 KTS
Visibility
10,000+ meters
Flight Rules
VFR
Cloud Levels
  • Clear skies
Temperature
C / 48°F
Dewpoint
C / 41°F
Humidity
76%
Altimeter
29.97" Hg
Pressure
1014.92 hPa